Time;durP1;ratioP1;P1;durP2;ratioP2;P2;SDS_P1;SDS_P2;PMS_P1;PMS_P2;Temp;Humidity;BMP_temperature;BMP_pressure;BME280_temperature;BME280_humidity;BME280_pressure;Samples;Min_cycle;Max_cycle;Signal;HPM_P1;HPM_P2
2022/04/01 00:02:10;;;;;;;21.17;14.25;;;;;;;-0.82;100.00;100203.91;5092468;28;20187;-51
2022/04/01 00:04:36;;;;;;;20.90;15.07;;;;;;;-0.84;100.00;100200.59;5092513;28;20209;-52
2022/04/01 00:07:02;;;;;;;21.90;13.75;;;;;;;-0.87;100.00;100220.09;5092929;28;20024;-51
2022/04/01 00:09:27;;;;;;;21.17;14.02;;;;;;;-0.85;100.00;100209.81;5092520;28;20032;-50
2022/04/01 00:11:53;;;;;;;20.40;13.38;;;;;;;-0.84;100.00;100206.84;5096061;28;20024;-53
2022/04/01 00:14:18;;;;;;;22.42;14.27;;;;;;;-0.84;100.00;100222.34;5096008;28;20024;-53
2022/04/01 00:16:43;;;;;;;20.83;13.80;;;;;;;-0.91;100.00;100230.63;5077790;28;20032;-53
2022/04/01 00:19:08;;;;;;;22.38;14.18;;;;;;;-0.89;100.00;100223.06;5096074;28;20032;-54
2022/04/01 00:21:34;;;;;;;20.02;13.30;;;;;;;-0.87;100.00;100222.81;5096464;28;20087;-53
2022/04/01 00:24:01;;;;;;;20.23;12.90;;;;;;;-0.90;100.00;100229.56;5095839;28;20020;-53
2022/04/01 00:26:26;;;;;;;21.17;14.77;;;;;;;-0.92;100.00;100223.56;5094902;28;20024;-53
2022/04/01 00:28:51;;;;;;;20.88;14.13;;;;;;;-0.94;100.00;100222.97;5095696;28;20514;-53
2022/04/01 00:31:17;;;;;;;22.33;15.95;;;;;;;-0.96;100.00;100225.94;5096198;28;20024;-51
2022/04/01 00:33:42;;;;;;;21.55;15.35;;;;;;;-0.97;100.00;100218.03;5096274;28;20035;-49
2022/04/01 00:36:07;;;;;;;22.33;14.68;;;;;;;-1.01;100.00;100222.31;5095530;28;20032;-54
2022/04/01 00:38:32;;;;;;;21.10;14.00;;;;;;;-1.02;100.00;100216.06;5095940;28;20123;-50
2022/04/01 00:40:59;;;;;;;21.08;12.88;;;;;;;-1.00;100.00;100218.53;5095887;28;20032;-54
2022/04/01 00:43:30;;;;;;;22.25;14.23;;;;;;;-1.03;100.00;100225.28;5095109;28;20115;-50
2022/04/01 00:45:57;;;;;;;25.33;15.18;;;;;;;-1.02;100.00;100231.50;5095313;28;20404;-53
2022/04/01 00:48:23;;;;;;;19.85;12.90;;;;;;;-0.98;100.00;100225.34;5095267;28;20063;-52
2022/04/01 00:50:48;;;;;;;20.58;13.85;;;;;;;-1.01;100.00;100219.59;5095669;28;20066;-54
2022/04/01 00:53:13;;;;;;;19.75;13.10;;;;;;;-1.01;100.00;100217.72;5095749;28;20028;-54
2022/04/01 00:55:40;;;;;;;21.40;13.57;;;;;;;-1.04;100.00;100223.63;5095414;28;20069;-53
2022/04/01 00:58:08;;;;;;;19.77;12.80;;;;;;;-1.04;100.00;100231.75;5095381;28;20109;-54
2022/04/01 01:00:35;;;;;;;20.23;12.77;;;;;;;-1.01;100.00;100223.13;5094988;28;20036;-54
2022/04/01 01:03:01;;;;;;;19.70;12.43;;;;;;;-0.95;100.00;100227.59;5094770;28;20035;-52
2022/04/01 01:05:27;;;;;;;18.60;12.38;;;;;;;-0.99;100.00;100236.47;5095399;28;20405;-49
2022/04/01 01:07:52;;;;;;;19.17;13.07;;;;;;;-0.96;100.00;100242.22;5094831;28;20043;-52
2022/04/01 01:10:19;;;;;;;19.95;12.68;;;;;;;-0.99;100.00;100241.88;5095134;28;20031;-53
2022/04/01 01:12:45;;;;;;;19.55;12.65;;;;;;;-1.02;100.00;100235.06;5094987;28;20106;-52
2022/04/01 01:15:14;;;;;;;19.92;13.55;;;;;;;-1.07;100.00;100234.16;5095072;28;20032;-52
2022/04/01 01:17:40;;;;;;;20.08;12.15;;;;;;;-1.05;100.00;100238.25;5094441;28;20399;-52
2022/04/01 01:20:12;;;;;;;19.80;12.05;;;;;;;-1.01;100.00;100244.03;5076413;28;20480;-52
2022/04/01 01:22:39;;;;;;;19.90;12.60;;;;;;;-1.00;100.00;100245.69;5093924;28;20032;-53
2022/04/01 01:25:07;;;;;;;19.70;12.15;;;;;;;-1.03;100.00;100240.72;5095151;28;20052;-51
2022/04/01 01:27:33;;;;;;;21.52;13.40;;;;;;;-1.06;100.00;100246.66;5093979;28;20066;-53
2022/04/01 01:29:58;;;;;;;20.27;12.32;;;;;;;-1.07;100.00;100236.84;5094270;28;20032;-52
2022/04/01 01:32:23;;;;;;;21.23;12.75;;;;;;;-1.10;100.00;100243.59;5094586;28;20024;-53
2022/04/01 01:34:49;;;;;;;19.98;12.80;;;;;;;-1.04;100.00;100239.09;5094232;28;20032;-54
2022/04/01 01:37:14;;;;;;;20.42;13.90;;;;;;;-1.10;100.00;100244.41;5094639;28;20036;-51
2022/04/01 01:39:40;;;;;;;19.60;12.68;;;;;;;-1.07;100.00;100245.81;5094178;28;20028;-51
2022/04/01 01:42:06;;;;;;;22.05;14.05;;;;;;;-1.07;100.00;100250.44;5093939;28;20032;-53
2022/04/01 01:44:31;;;;;;;21.63;13.70;;;;;;;-1.09;100.00;100239.84;5094059;28;20081;-53
2022/04/01 01:46:57;;;;;;;28.15;12.10;;;;;;;-1.06;100.00;100250.19;5094118;28;20468;-53
2022/04/01 01:49:22;;;;;;;20.23;12.55;;;;;;;-1.05;100.00;100249.13;5094571;28;20102;-52
2022/04/01 01:54:42;;;;;;;21.23;12.93;;;;;;;-1.03;100.00;100254.28;5094709;28;20170;-53
2022/04/01 01:57:07;;;;;;;20.48;13.00;;;;;;;-1.06;100.00;100252.91;5094477;28;20028;-51
2022/04/01 01:59:34;;;;;;;20.15;12.50;;;;;;;-0.99;100.00;100255.47;5094036;28;20061;-51
2022/04/01 02:02:03;;;;;;;19.52;12.18;;;;;;;-1.00;100.00;100257.38;5094107;28;20028;-52
2022/04/01 02:04:29;;;;;;;22.90;14.05;;;;;;;-1.02;100.00;100266.81;5094104;28;20040;-49
2022/04/01 02:06:54;;;;;;;20.23;13.48;;;;;;;-1.01;100.00;100265.75;5094298;28;20039;-53
2022/04/01 02:09:19;;;;;;;20.45;13.88;;;;;;;-1.05;100.00;100265.41;5094084;28;20377;-50
2022/04/01 02:11:45;;;;;;;20.55;13.38;;;;;;;-1.06;100.00;100271.91;5093495;28;20109;-50
2022/04/01 02:14:11;;;;;;;19.65;13.18;;;;;;;-1.04;100.00;100269.78;5093749;28;20059;-52
2022/04/01 02:16:37;;;;;;;20.08;13.18;;;;;;;-1.02;100.00;100274.94;5093888;28;20051;-50
2022/04/01 02:19:03;;;;;;;20.40;12.55;;;;;;;-1.04;100.00;100279.81;5093457;28;20027;-50
2022/04/01 02:21:29;;;;;;;19.83;12.80;;;;;;;-1.03;100.00;100274.13;5093704;28;20054;-50
2022/04/01 02:23:54;;;;;;;20.17;13.35;;;;;;;-1.06;100.00;100284.66;5093621;28;20041;-50
2022/04/01 02:26:19;;;;;;;20.95;12.98;;;;;;;-1.07;100.00;100281.09;5092809;28;20020;-54
2022/04/01 02:28:45;;;;;;;19.95;13.55;;;;;;;-1.09;100.00;100280.56;5092104;28;20025;-53
2022/04/01 02:31:14;;;;;;;21.00;13.38;;;;;;;-1.02;100.00;100288.53;5093782;28;20016;-48
2022/04/01 02:33:42;;;;;;;21.42;14.63;;;;;;;-1.09;100.00;100294.13;5093988;28;20032;-50
2022/04/01 02:36:10;;;;;;;19.35;12.15;;;;;;;-1.04;100.00;100287.97;5094152;28;20356;-52
2022/04/01 02:38:39;;;;;;;19.73;12.70;;;;;;;-1.09;100.00;100294.13;5093807;28;20376;-54
2022/04/01 02:41:06;;;;;;;18.77;12.15;;;;;;;-1.06;100.00;100296.34;5094394;28;20024;-52
2022/04/01 02:43:31;;;;;;;20.25;13.45;;;;;;;-1.08;100.00;100290.31;5093606;28;20508;-51
2022/04/01 02:45:57;;;;;;;22.15;13.95;;;;;;;-1.10;100.00;100285.16;5093899;28;20102;-53
2022/04/01 02:48:22;;;;;;;20.88;13.02;;;;;;;-1.08;100.00;100303.91;5094107;28;20085;-51
2022/04/01 02:50:48;;;;;;;21.05;14.45;;;;;;;-1.04;100.00;100296.13;5093502;28;20024;-51
2022/04/01 02:53:15;;;;;;;22.02;13.45;;;;;;;-1.07;100.00;100304.72;5093844;28;20417;-52
2022/04/01 02:55:41;;;;;;;21.88;13.57;;;;;;;-1.13;100.00;100293.75;5093466;28;20040;-52
2022/04/01 02:58:06;;;;;;;21.52;13.88;;;;;;;-1.09;100.00;100296.84;5093765;28;20153;-54
2022/04/01 03:00:33;;;;;;;21.60;14.02;;;;;;;-1.08;100.00;100301.19;5093661;28;20064;-54
2022/04/01 03:02:58;;;;;;;21.60;14.00;;;;;;;-1.05;100.00;100303.41;5093564;28;20123;-52
2022/04/01 03:05:24;;;;;;;22.35;14.40;;;;;;;-1.03;100.00;100319.47;5093621;28;20047;-53
2022/04/01 03:07:49;;;;;;;24.60;15.38;;;;;;;-1.04;100.00;100320.56;5093648;28;20097;-54
2022/04/01 03:10:15;;;;;;;21.17;13.40;;;;;;;-1.05;100.00;100319.72;5092958;28;20369;-52
2022/04/01 03:12:40;;;;;;;22.85;15.18;;;;;;;-1.08;100.00;100312.03;5093085;28;20237;-54
2022/04/01 03:15:06;;;;;;;22.58;15.15;;;;;;;-1.07;100.00;100324.56;5092970;28;20042;-50
2022/04/01 03:17:32;;;;;;;23.27;15.88;;;;;;;-1.02;100.00;100327.38;5093205;28;20495;-51
2022/04/01 03:19:59;;;;;;;22.70;15.88;;;;;;;-1.10;100.00;100331.28;5093483;28;20032;-53
2022/04/01 03:22:25;;;;;;;22.05;15.40;;;;;;;-1.13;100.00;100326.34;5093218;28;20024;-54
2022/04/01 03:24:51;;;;;;;22.00;14.25;;;;;;;-1.13;100.00;100331.75;5092876;28;20030;-53
2022/04/01 03:27:16;;;;;;;21.60;14.60;;;;;;;-1.08;100.00;100344.63;5092819;28;20020;-52
2022/04/01 03:29:41;;;;;;;20.65;12.75;;;;;;;-0.95;100.00;100346.25;5093302;28;20062;-53
2022/04/01 03:32:07;;;;;;;21.45;14.00;;;;;;;-1.13;100.00;100345.34;5092738;28;20088;-50
2022/04/01 03:34:33;;;;;;;22.40;14.23;;;;;;;-1.09;100.00;100348.44;5093012;28;20028;-51
2022/04/01 03:36:58;;;;;;;22.30;14.35;;;;;;;-1.14;100.00;100361.88;5092909;28;20028;-52
2022/04/01 03:39:24;;;;;;;22.85;14.27;;;;;;;-1.14;100.00;100345.59;5093511;28;20150;-52
2022/04/01 03:41:50;;;;;;;27.40;16.48;;;;;;;-1.20;100.00;100357.41;5093169;28;20067;-51
2022/04/01 03:44:17;;;;;;;22.60;15.52;;;;;;;-1.24;100.00;100354.34;5093171;28;20032;-52
2022/04/01 03:46:49;;;;;;;22.58;15.77;;;;;;;-1.27;100.00;100357.53;5097544;28;20024;-50
2022/04/01 03:49:22;;;;;;;22.02;16.35;;;;;;;-1.24;100.00;100365.22;5097652;28;20070;-55
2022/04/01 03:51:49;;;;;;;22.65;15.65;;;;;;;-1.31;100.00;100359.91;5079419;28;20453;-54
2022/04/01 03:54:16;;;;;;;21.10;14.90;;;;;;;-1.28;100.00;100369.47;5097759;28;20020;-51
2022/04/01 03:56:44;;;;;;;19.75;12.98;;;;;;;-1.21;100.00;100366.63;5096733;28;20067;-54
2022/04/01 03:59:12;;;;;;;21.52;14.73;;;;;;;-1.28;100.00;100378.44;5097012;28;20468;-54
2022/04/01 04:01:38;;;;;;;22.00;14.35;;;;;;;-1.30;100.00;100382.44;5096596;28;20020;-54
2022/04/01 04:04:05;;;;;;;22.08;15.25;;;;;;;-1.38;100.00;100378.22;5096798;28;20417;-54
2022/04/01 04:06:34;;;;;;;23.33;15.95;;;;;;;-1.37;100.00;100387.19;5078726;28;20169;-50
2022/04/01 04:09:03;;;;;;;21.77;15.27;;;;;;;-1.36;100.00;100391.53;5096874;28;20035;-54
2022/04/01 04:11:31;;;;;;;23.00;16.25;;;;;;;-1.34;100.00;100387.53;5078571;28;20032;-50
2022/04/01 04:13:57;;;;;;;23.05;14.63;;;;;;;-1.34;100.00;100392.94;5096649;28;20035;-52
2022/04/01 04:16:44;;;;;;;19.83;12.70;;;;;;;-1.26;100.00;100403.44;5096563;28;20032;-53
2022/04/01 04:19:27;;;;;;;22.70;16.13;;;;;;;-1.33;100.00;100399.22;5096593;28;20529;-53
2022/04/01 04:22:10;;;;;;;21.80;14.00;;;;;;;-1.28;100.00;100410.16;5096514;28;20476;-54
2022/04/01 04:24:44;;;;;;;22.02;14.25;;;;;;;-1.31;100.00;100416.06;5096786;28;20023;-52
2022/04/01 04:27:11;;;;;;;;;;;;;;;-1.21;100.00;100419.00;5096398;28;20028;-53
2022/04/01 04:29:48;;;;;;;23.65;15.70;;;;;;;-1.32;100.00;100417.16;5096524;28;19915;-53
2022/04/01 04:32:22;;;;;;;22.27;13.85;;;;;;;-1.35;100.00;100421.16;5096325;28;20032;-52
2022/04/01 04:34:50;;;;;;;22.65;16.15;;;;;;;-1.36;100.00;100430.34;5096071;28;20024;-53
2022/04/01 04:37:21;;;;;;;22.48;16.13;;;;;;;-1.33;100.00;100445.34;5096262;28;20046;-55
2022/04/01 04:39:48;;;;;;;22.95;15.25;;;;;;;-1.29;100.00;100427.50;5096009;28;20038;-52
2022/04/01 04:42:15;;;;;;;22.38;15.25;;;;;;;-1.31;100.00;100435.06;5095973;28;20027;-54
2022/04/01 04:44:44;;;;;;;21.10;13.93;;;;;;;-1.30;100.00;100439.44;5096138;28;20052;-54
2022/04/01 04:47:11;;;;;;;20.85;13.63;;;;;;;-1.31;100.00;100437.78;5095764;28;20125;-53
2022/04/01 04:49:36;;;;;;;21.17;14.02;;;;;;;-1.30;100.00;100443.00;5096252;28;20032;-53
2022/04/01 04:52:02;;;;;;;22.67;14.52;;;;;;;-1.29;100.00;100450.06;5095821;28;20119;-54
2022/04/01 04:54:28;;;;;;;21.60;13.23;;;;;;;-1.26;100.00;100456.91;5096068;28;20051;-55
2022/04/01 04:56:54;;;;;;;21.35;12.68;;;;;;;-1.26;100.00;100471.28;5094234;28;20399;-55
2022/04/01 04:59:21;;;;;;;21.00;13.95;;;;;;;-1.24;100.00;100465.66;5096235;28;20130;-54
2022/04/01 05:02:06;;;;;;;21.60;15.02;;;;;;;-1.28;100.00;100465.28;5096122;28;20028;-53
2022/04/01 05:04:40;;;;;;;21.75;13.70;;;;;;;-1.21;100.00;100469.75;5095547;28;20489;-50
2022/04/01 05:07:08;;;;;;;21.15;14.75;;;;;;;-1.20;100.00;100466.81;5095755;28;20035;-52
2022/04/01 05:09:51;;;;;;;21.70;14.40;;;;;;;-1.14;100.00;100481.31;5095414;28;20054;-54
2022/04/01 05:12:32;;;;;;;21.48;15.20;;;;;;;-1.24;99.86;100489.22;5095514;28;20028;-53
2022/04/01 05:15:05;;;;;;;22.88;15.35;;;;;;;-1.24;99.92;100491.94;5095317;28;20070;-52
2022/04/01 05:17:53;;;;;;;20.30;13.82;;;;;;;-1.21;99.45;100494.19;5095182;28;20396;-53
2022/04/01 05:20:26;;;;;;;21.35;14.57;;;;;;;-1.21;99.17;100511.28;5095207;28;20112;-53
2022/04/01 05:23:11;;;;;;;21.92;14.75;;;;;;;-1.23;98.38;100516.16;5095011;28;20442;-54
2022/04/01 05:25:49;;;;;;;21.42;13.70;;;;;;;-1.20;98.72;100506.72;5094893;28;20479;-54
2022/04/01 05:28:23;;;;;;;22.77;15.13;;;;;;;-1.21;98.00;100516.72;5095090;28;20040;-52
2022/04/01 05:31:18;;;;;;;20.33;13.98;;;;;;;-1.22;98.82;100517.78;5094667;28;20032;-53
2022/04/01 05:33:57;;;;;;;23.42;16.25;;;;;;;-1.29;98.23;100511.66;5094745;28;20032;-54
2022/04/01 05:36:23;;;;;;;22.23;15.13;;;;;;;-1.24;98.17;100517.22;5094999;28;20020;-54
2022/04/01 05:38:49;;;;;;;22.92;15.07;;;;;;;-1.24;98.40;100525.38;5094770;28;20111;-54
2022/04/01 05:41:19;;;;;;;21.02;14.40;;;;;;;-1.23;97.85;100524.31;5094788;28;20056;-51
2022/04/01 05:43:47;;;;;;;19.92;13.88;;;;;;;-1.19;98.06;100530.91;5094618;28;20511;-52
2022/04/01 05:46:13;;;;;;;22.40;15.45;;;;;;;-1.23;97.68;100528.88;5093995;28;20039;-54
2022/04/01 05:48:40;;;;;;;20.85;14.27;;;;;;;-1.17;97.86;100539.63;5094218;28;20024;-51
2022/04/01 05:51:06;;;;;;;21.55;14.07;;;;;;;-1.26;97.20;100549.19;5094442;28;20032;-50
2022/04/01 05:53:33;;;;;;;21.45;14.05;;;;;;;-1.20;97.59;100553.66;5094558;28;20043;-53
2022/04/01 05:55:59;;;;;;;21.33;14.43;;;;;;;-1.20;97.25;100558.28;5094159;28;20131;-50
2022/04/01 05:58:26;;;;;;;20.58;15.32;;;;;;;-1.29;96.49;100563.22;5094245;28;20024;-55
2022/04/01 06:01:00;;;;;;;21.13;13.45;;;;;;;-1.24;97.16;100565.22;5094105;28;20051;-52
2022/04/01 06:04:05;;;;;;;19.83;12.60;;;;;;;-1.10;96.10;100578.34;5094456;28;20028;-54
2022/04/01 06:06:44;;;;;;;;;;;;;;;-1.11;95.86;100587.56;5094621;28;20406;-54
2022/04/01 06:09:34;;;;;;;21.33;12.93;;;;;;;-1.12;95.54;100579.66;5093717;28;20295;-53
2022/04/01 06:12:19;;;;;;;19.27;12.82;;;;;;;-1.14;95.46;100587.19;5094319;28;20028;-51
2022/04/01 06:14:54;;;;;;;20.85;14.32;;;;;;;-1.17;95.08;100588.50;5094412;28;20020;-54
2022/04/01 06:17:32;;;;;;;21.67;13.07;;;;;;;-1.20;96.05;100586.25;5093974;28;20028;-53
2022/04/01 06:20:03;;;;;;;20.33;14.32;;;;;;;-1.18;95.29;100597.69;5085856;28;20016;-54
2022/04/01 06:22:31;;;;;;;21.23;13.25;;;;;;;-1.15;95.52;100610.81;5073474;28;20028;-54
2022/04/01 06:25:13;;;;;;;19.40;13.05;;;;;;;-1.17;94.41;100607.50;5073410;28;20035;-49
2022/04/01 06:27:46;;;;;;;21.63;12.15;;;;;;;-1.13;94.55;100607.84;5073439;28;20047;-50
2022/04/01 06:30:21;;;;;;;19.10;12.57;;;;;;;-1.16;93.97;100606.44;5073473;28;20028;-51
2022/04/01 06:32:49;;;;;;;19.45;12.25;;;;;;;-1.11;94.66;100622.03;5073392;28;20032;-53
2022/04/01 06:35:18;;;;;;;19.25;12.57;;;;;;;-1.08;93.30;100626.16;5073192;28;20067;-52
2022/04/01 06:37:58;;;;;;;21.42;13.05;;;;;;;-1.12;94.31;100620.38;5072967;28;20028;-51
2022/04/01 06:40:29;;;;;;;18.48;12.25;;;;;;;-1.10;93.59;100631.84;5072936;28;20473;-51
2022/04/01 06:42:54;;;;;;;19.45;12.05;;;;;;;-1.05;93.99;100628.41;5073071;28;20025;-52
2022/04/01 06:45:20;;;;;;;18.30;10.98;;;;;;;-1.01;93.80;100649.44;5073082;28;20025;-54
2022/04/01 06:47:46;;;;;;;18.38;11.25;;;;;;;-1.11;93.00;100638.31;5073076;28;20025;-53
2022/04/01 06:50:12;;;;;;;18.58;11.18;;;;;;;-1.02;92.95;100645.06;5072486;28;20063;-53
2022/04/01 06:52:39;;;;;;;19.00;11.32;;;;;;;-1.00;92.82;100648.38;5072172;28;20036;-52
2022/04/01 06:55:08;;;;;;;19.50;11.80;;;;;;;-0.96;92.42;100654.16;5072488;28;20085;-55
2022/04/01 06:57:35;;;;;;;17.70;11.40;;;;;;;-0.85;93.00;100657.94;5072743;28;20051;-50
2022/04/01 07:00:05;;;;;;;20.15;12.00;;;;;;;-0.95;91.25;100666.69;5070682;28;20400;-52
2022/04/01 07:02:31;;;;;;;19.55;11.52;;;;;;;-0.99;92.24;100658.16;5070689;28;20768;-56
2022/04/01 07:04:56;;;;;;;18.10;11.63;;;;;;;-0.98;91.95;100661.72;5070463;28;20055;-52
2022/04/01 07:07:21;;;;;;;21.48;13.15;;;;;;;-0.95;92.33;100672.13;5070723;28;20388;-50
2022/04/01 07:09:46;;;;;;;19.50;12.40;;;;;;;-0.94;92.28;100673.75;5070718;28;20024;-49
2022/04/01 07:12:12;;;;;;;19.85;11.50;;;;;;;-0.87;91.94;100660.91;5070662;28;20165;-52
2022/04/01 07:14:37;;;;;;;18.85;11.43;;;;;;;-0.84;92.18;100673.19;5070817;28;20162;-53
2022/04/01 07:17:03;;;;;;;20.05;11.60;;;;;;;-0.86;91.96;100681.59;5070774;28;20043;-51
2022/04/01 07:19:28;;;;;;;20.17;11.13;;;;;;;-0.88;91.78;100683.69;5068641;28;20029;-52
2022/04/01 07:21:53;;;;;;;19.77;12.05;;;;;;;-0.93;91.68;100690.88;5070722;28;20030;-50
2022/04/01 07:24:19;;;;;;;21.08;12.18;;;;;;;-0.93;92.01;100688.19;5083498;28;20114;-52
2022/04/01 07:26:45;;;;;;;21.10;13.10;;;;;;;-0.90;91.20;100691.25;5089895;28;20483;-49
2022/04/01 07:29:13;;;;;;;20.05;11.43;;;;;;;-0.91;91.20;100692.31;5085606;28;20013;-52
2022/04/01 07:32:29;;;;;;;19.63;11.90;;;;;;;-0.89;91.68;100690.19;5070358;28;20028;-52
2022/04/01 07:34:55;;;;;;;19.95;11.55;;;;;;;-0.86;92.53;100691.59;5068793;28;20047;-50
2022/04/01 07:37:23;;;;;;;18.67;11.23;;;;;;;-0.81;92.16;100691.75;5070543;28;20040;-52
2022/04/01 07:39:52;;;;;;;18.98;11.18;;;;;;;-0.80;92.17;100696.09;5070379;28;20060;-52
2022/04/01 07:42:20;;;;;;;18.05;10.43;;;;;;;-0.81;91.53;100716.19;5070458;28;20032;-49
2022/04/01 07:44:48;;;;;;;18.67;10.77;;;;;;;-0.82;90.77;100709.91;5070635;28;20120;-50
2022/04/01 07:47:15;;;;;;;19.00;10.55;;;;;;;-0.83;91.19;100713.69;5070138;28;20028;-51
2022/04/01 07:49:44;;;;;;;19.13;11.30;;;;;;;-0.83;91.29;100710.97;5070281;28;20027;-51
2022/04/01 07:52:11;;;;;;;19.25;10.90;;;;;;;-0.82;90.93;100717.25;5069931;28;20443;-51
2022/04/01 07:54:37;;;;;;;19.00;10.80;;;;;;;-0.74;90.67;100721.50;5070147;28;20032;-51
2022/04/01 07:57:04;;;;;;;18.15;10.63;;;;;;;-0.73;90.27;100724.00;5070195;28;20025;-49
2022/04/01 07:59:29;;;;;;;18.90;11.65;;;;;;;-0.76;90.79;100729.88;5070251;28;20446;-50
2022/04/01 08:01:55;;;;;;;19.23;11.48;;;;;;;-0.74;91.14;100724.22;5070342;28;20488;-49
2022/04/01 08:04:20;;;;;;;19.70;11.30;;;;;;;-0.73;90.77;100734.03;5069611;28;20446;-52
2022/04/01 08:06:45;;;;;;;17.58;10.50;;;;;;;-0.73;90.28;100720.44;5069940;28;20119;-52
2022/04/01 08:09:11;;;;;;;18.83;10.50;;;;;;;-0.66;90.17;100748.34;5091653;28;20024;-50
2022/04/01 08:11:36;;;;;;;19.08;10.50;;;;;;;-0.71;90.46;100737.34;5091608;28;20032;-53
2022/04/01 08:14:02;;;;;;;17.38;10.27;;;;;;;-0.65;90.22;100739.09;5091320;28;20035;-52
2022/04/01 08:16:28;;;;;;;17.60;9.93;;;;;;;-0.61;90.19;100745.75;5090270;28;20111;-51
2022/04/01 08:18:53;;;;;;;19.20;10.60;;;;;;;-0.63;89.92;100748.72;5090123;28;20107;-50
2022/04/01 08:21:18;;;;;;;19.30;11.25;;;;;;;-0.64;90.14;100757.06;5090131;28;20024;-50
2022/04/01 08:23:44;;;;;;;18.35;10.40;;;;;;;-0.66;90.20;100779.06;5090085;28;20395;-51
2022/04/01 08:26:11;;;;;;;18.42;10.50;;;;;;;-0.69;89.08;100771.34;5089797;28;20016;-49
2022/04/01 08:28:37;;;;;;;15.82;9.43;;;;;;;-0.64;89.03;100766.06;5089835;28;20048;-50
2022/04/01 08:31:03;;;;;;;18.05;10.18;;;;;;;-0.51;89.43;100783.19;5091212;28;20501;-50
2022/04/01 08:33:29;;;;;;;17.55;9.32;;;;;;;-0.44;88.28;100775.78;5089369;28;20127;-53
2022/04/01 08:35:55;;;;;;;17.40;9.85;;;;;;;-0.42;87.33;100780.97;5073417;28;20032;-48
2022/04/01 08:38:20;;;;;;;16.23;9.73;;;;;;;-0.49;86.27;100791.97;5073108;28;20039;-51
2022/04/01 08:40:46;;;;;;;15.10;9.05;;;;;;;-0.45;85.95;100795.03;5073261;28;20036;-51
2022/04/01 08:43:11;;;;;;;18.08;9.60;;;;;;;-0.41;86.02;100782.66;5073137;28;20043;-50
2022/04/01 08:45:38;;;;;;;14.90;9.10;;;;;;;-0.28;86.88;100790.56;5073171;28;20537;-52
2022/04/01 08:48:05;;;;;;;14.07;8.70;;;;;;;-0.22;85.95;100799.66;5073258;28;20025;-49
2022/04/01 08:50:30;;;;;;;17.25;10.02;;;;;;;-0.31;85.55;100807.38;5072908;28;20035;-51
2022/04/01 08:52:56;;;;;;;18.67;9.85;;;;;;;-0.12;85.50;100809.97;5073073;28;20036;-52
2022/04/01 08:55:21;;;;;;;15.18;9.60;;;;;;;-0.07;86.20;100807.38;5072933;28;20040;-50
2022/04/01 08:57:46;;;;;;;16.63;9.60;;;;;;;-0.01;85.73;100811.88;5072855;28;20024;-53
2022/04/01 09:00:14;;;;;;;18.48;9.93;;;;;;;0.06;85.95;100818.03;5072894;28;20043;-53
2022/04/01 09:02:41;;;;;;;15.32;9.88;;;;;;;0.15;85.55;100816.59;5073148;28;20154;-53
2022/04/01 09:05:08;;;;;;;16.67;9.88;;;;;;;0.22;85.60;100826.53;5072476;28;20485;-53
2022/04/01 09:07:34;;;;;;;16.35;9.85;;;;;;;0.25;85.00;100823.34;5072546;28;20146;-53
2022/04/01 09:10:04;;;;;;;16.98;9.75;;;;;;;0.32;86.25;100832.19;5072837;28;20063;-53
2022/04/01 09:12:29;;;;;;;16.42;9.82;;;;;;;0.34;85.29;100835.53;5072554;28;20040;-49
2022/04/01 09:14:57;;;;;;;17.42;9.52;;;;;;;0.41;84.12;100832.69;5072684;28;20032;-52
2022/04/01 09:17:38;;;;;;;17.27;9.50;;;;;;;0.43;84.11;100844.13;5072655;28;20061;-51
2022/04/01 09:20:06;;;;;;;18.08;9.50;;;;;;;0.45;83.55;100834.69;5077842;28;20044;-51
2022/04/01 09:22:32;;;;;;;18.13;10.48;;;;;;;0.40;84.43;100837.28;5094299;28;20504;-51
2022/04/01 09:25:02;;;;;;;15.23;9.20;;;;;;;0.45;84.72;100839.28;5094148;28;20047;-51
2022/04/01 09:27:46;;;;;;;14.48;8.88;;;;;;;0.51;84.63;100837.50;5094523;28;20035;-49
2022/04/01 09:30:24;;;;;;;15.63;9.23;;;;;;;0.49;84.47;100850.53;5094742;28;20028;-52
2022/04/01 09:32:58;;;;;;;15.50;8.60;;;;;;;0.55;83.80;100847.69;5094716;28;20373;-51
2022/04/01 09:35:26;;;;;;;13.98;8.38;;;;;;;0.57;83.30;100845.56;5094490;28;20445;-53
2022/04/01 09:37:54;;;;;;;15.88;9.38;;;;;;;0.64;83.39;100839.97;5094532;28;20027;-52
2022/04/01 09:40:22;;;;;;;15.35;8.88;;;;;;;0.69;83.00;100853.69;5094472;28;20027;-50
2022/04/01 09:42:56;;;;;;;15.68;8.80;;;;;;;0.75;83.34;100850.03;5093743;28;20473;-52
2022/04/01 09:45:24;;;;;;;13.95;8.48;;;;;;;0.77;81.45;100858.75;5094312;28;20043;-54
2022/04/01 09:48:01;;;;;;;16.75;9.52;;;;;;;0.56;81.56;100854.78;5094180;28;20040;-54
2022/04/01 09:50:29;;;;;;;15.90;9.15;;;;;;;0.69;83.52;100867.31;5094470;28;20107;-51
2022/04/01 09:53:05;;;;;;;16.05;8.80;;;;;;;0.78;82.79;100857.69;5094178;28;20024;-51
2022/04/01 09:55:38;;;;;;;15.20;8.68;;;;;;;0.75;81.42;100873.69;5094345;28;20039;-51
2022/04/01 09:58:05;;;;;;;14.40;8.75;;;;;;;0.61;80.97;100868.50;5094066;28;20107;-54
2022/04/01 10:00:30;;;;;;;18.65;10.23;;;;;;;0.61;82.13;100865.78;5093805;28;20048;-53
2022/04/01 10:02:55;;;;;;;17.92;9.60;;;;;;;0.72;82.06;100864.13;5093976;28;20443;-53
2022/04/01 10:05:20;;;;;;;16.70;9.30;;;;;;;0.82;81.74;100863.50;5093808;28;20048;-52
2022/04/01 10:07:46;;;;;;;16.33;9.27;;;;;;;0.86;81.13;100866.56;5075744;28;20032;-54
2022/04/01 10:10:12;;;;;;;15.57;8.90;;;;;;;0.88;80.12;100872.59;5093912;28;20485;-51
2022/04/01 10:12:45;;;;;;;16.20;9.05;;;;;;;0.93;80.04;100865.34;5093720;28;20024;-52
2022/04/01 10:15:11;;;;;;;15.23;9.10;;;;;;;1.08;80.63;100869.47;5094139;28;20028;-53
2022/04/01 10:17:39;;;;;;;16.70;9.48;;;;;;;1.22;80.82;100861.84;5093890;28;20361;-53
2022/04/01 10:20:05;;;;;;;16.10;9.23;;;;;;;1.27;80.02;100867.38;5093693;28;20024;-54
2022/04/01 10:22:31;;;;;;;16.17;9.82;;;;;;;1.36;81.15;100865.09;5093449;28;20078;-53
2022/04/01 10:25:03;;;;;;;15.52;9.10;;;;;;;1.36;79.27;100876.81;5093529;28;20027;-54
2022/04/01 10:27:40;;;;;;;15.98;9.10;;;;;;;1.13;78.98;100882.38;5093501;28;20107;-54
2022/04/01 10:30:10;;;;;;;16.40;9.40;;;;;;;0.88;79.23;100876.16;5093702;28;20031;-54
2022/04/01 10:32:35;;;;;;;15.70;9.63;;;;;;;0.91;78.36;100872.94;5093655;28;20027;-51
2022/04/01 10:35:03;;;;;;;18.13;9.70;;;;;;;0.88;79.09;100867.16;5092502;28;20024;-54
2022/04/01 10:37:30;;;;;;;20.10;10.70;;;;;;;0.91;79.72;100875.66;5075002;28;20027;-53
2022/04/01 10:39:58;;;;;;;17.45;10.00;;;;;;;1.01;79.06;100874.22;5092917;28;20030;-52
2022/04/01 10:42:35;;;;;;;16.70;10.00;;;;;;;0.95;78.07;100873.28;5093065;28;20077;-52
2022/04/01 10:45:04;;;;;;;16.83;9.95;;;;;;;0.93;79.69;100880.88;5093142;28;20081;-53
2022/04/01 10:53:37;;;;;;;18.73;10.40;;;;;;;1.04;79.42;100880.00;5070686;28;20166;-54
2022/04/01 10:56:23;;;;;;;20.13;10.63;;;;;;;1.00;78.03;100887.03;5070625;28;20059;-54
2022/04/01 10:59:02;;;;;;;17.52;10.25;;;;;;;0.97;79.64;100890.22;5071695;28;20434;-54
2022/04/01 11:01:27;;;;;;;17.60;9.88;;;;;;;0.97;78.33;100884.78;5079633;28;20021;-52
2022/04/01 11:03:58;;;;;;;18.30;10.02;;;;;;;1.00;77.94;100891.63;5068574;28;20059;-54
2022/04/01 11:06:26;;;;;;;17.58;10.70;;;;;;;0.95;78.62;100886.09;5070403;28;20031;-51
2022/04/01 11:08:52;;;;;;;16.90;10.20;;;;;;;1.01;78.66;100896.00;5070529;28;20526;-51
2022/04/01 11:11:18;;;;;;;18.40;11.00;;;;;;;1.00;78.41;100905.25;5070021;28;20028;-54
2022/04/01 11:14:02;;;;;;;19.55;11.05;;;;;;;1.11;78.44;100903.59;5070609;28;20032;-53
2022/04/01 11:16:43;;;;;;;16.90;10.35;;;;;;;1.09;78.09;100901.91;5070468;28;20039;-50
2022/04/01 11:19:14;;;;;;;18.60;10.35;;;;;;;1.04;78.07;100904.53;5070599;28;20040;-54
2022/04/01 11:21:40;;;;;;;18.88;11.07;;;;;;;0.95;77.98;100916.06;5070350;28;20028;-53
2022/04/01 11:24:21;;;;;;;17.85;10.63;;;;;;;0.95;78.98;100913.31;5070576;28;20029;-53
2022/04/01 11:26:47;;;;;;;17.55;10.85;;;;;;;0.93;78.71;100919.03;5070154;28;20514;-53